Time;durP1;ratioP1;P1;durP2;ratioP2;P2;SDS_P1;SDS_P2;PMS_P1;PMS_P2;Temp;Humidity;BMP_temperature;BMP_pressure;BME280_temperature;BME280_humidity;BME280_pressure;Samples;Min_cycle;Max_cycle;Signal;HPM_P1;HPM_P2
2022/08/15 00:01:55;;;;;;;5.18;4.03;;;25.80;78.40;;;;;;4062980;29;20082;-62
2022/08/15 00:03:58;;;;;;;5.28;3.83;;;25.80;77.30;;;;;;4067643;29;20039;-62
2022/08/15 00:06:05;;;;;;;4.35;3.95;;;25.70;77.20;;;;;;4063063;29;20120;-61
2022/08/15 00:08:06;;;;;;;4.10;3.70;;;25.60;76.60;;;;;;4063441;29;20066;-61
2022/08/15 00:10:08;;;;;;;4.50;3.70;;;25.50;77.00;;;;;;4063185;29;20036;-62
2022/08/15 00:12:09;;;;;;;4.28;3.72;;;25.40;77.50;;;;;;4062975;29;20036;-62
2022/08/15 00:14:15;;;;;;;5.50;4.13;;;25.40;78.30;;;;;;4062802;29;20067;-62
2022/08/15 00:16:19;;;;;;;4.88;4.10;;;25.40;78.10;;;;;;4062371;29;20043;-62
2022/08/15 00:18:20;;;;;;;4.60;4.07;;;25.10;78.70;;;;;;4063637;29;20036;-61
2022/08/15 00:20:21;;;;;;;4.15;3.60;;;25.10;82.00;;;;;;4061553;29;20052;-62
2022/08/15 00:22:22;;;;;;;5.38;4.20;;;25.10;81.10;;;;;;4062923;29;20045;-62
2022/08/15 00:24:26;;;;;;;5.07;3.58;;;25.10;81.10;;;;;;4062936;29;20036;-61
2022/08/15 00:26:27;;;;;;;5.32;3.60;;;25.10;80.70;;;;;;4062848;29;20051;-62
2022/08/15 00:28:29;;;;;;;5.90;4.00;;;25.20;80.90;;;;;;4063941;29;20099;-62
2022/08/15 00:30:30;;;;;;;4.60;3.92;;;25.20;81.50;;;;;;4062784;29;20067;-62
2022/08/15 00:32:32;;;;;;;5.18;3.75;;;25.20;81.20;;;;;;4062880;29;20032;-62
2022/08/15 00:34:33;;;;;;;5.47;3.70;;;25.30;80.00;;;;;;4048425;29;20061;-62
2022/08/15 00:36:34;;;;;;;4.82;3.70;;;25.30;80.00;;;;;;4046231;29;20115;-62
2022/08/15 00:38:34;;;;;;;4.63;3.50;;;25.30;80.40;;;;;;4050587;29;20025;-62
2022/08/15 00:42:55;;;;;;;6.15;4.00;;;25.30;78.80;;;;;;4050429;29;20096;-62
2022/08/15 00:44:57;;;;;;;4.50;3.58;;;25.40;79.50;;;;;;4050188;29;20484;-61
2022/08/15 00:47:02;;;;;;;4.45;3.60;;;25.40;79.00;;;;;;4053534;29;20424;-61
2022/08/15 00:49:04;;;;;;;4.22;3.40;;;25.30;78.20;;;;;;4066359;29;20112;-62
2022/08/15 00:51:31;;;;;;;7.70;3.70;;;25.30;78.80;;;;;;4064517;29;20360;-62
2022/08/15 00:53:32;;;;;;;4.40;3.90;;;25.30;78.60;;;;;;4060085;29;20039;-62
2022/08/15 00:55:36;;;;;;;4.78;4.13;;;25.30;79.00;;;;;;4064868;29;20036;-61
2022/08/15 00:57:41;;;;;;;5.18;3.70;;;25.30;79.00;;;;;;4066084;29;20096;-62
2022/08/15 00:59:47;;;;;;;3.70;3.33;;;25.20;79.20;;;;;;4065624;29;20046;-62
2022/08/15 01:01:48;;;;;;;4.95;4.07;;;25.20;79.80;;;;;;4064766;29;20043;-61
2022/08/15 01:03:52;;;;;;;4.78;4.28;;;25.20;79.50;;;;;;4066128;29;20044;-62
2022/08/15 01:05:56;;;;;;;4.65;3.67;;;25.10;78.60;;;;;;4047615;29;20428;-62
2022/08/15 01:07:57;;;;;;;4.13;3.40;;;25.10;79.00;;;;;;4065821;29;20564;-62
2022/08/15 01:09:58;;;;;;;5.78;4.32;;;25.10;79.00;;;;;;4066066;29;20066;-61
2022/08/15 01:12:03;;;;;;;5.13;3.88;;;25.10;79.00;;;;;;4064741;29;20072;-62
2022/08/15 01:14:07;;;;;;;5.75;4.18;;;25.10;79.50;;;;;;4049692;29;20092;-63
2022/08/15 01:16:08;;;;;;;4.78;3.70;;;25.10;79.00;;;;;;4049248;29;20047;-61
2022/08/15 01:18:09;;;;;;;5.97;3.88;;;25.10;78.70;;;;;;4050319;29;20040;-62
2022/08/15 01:20:15;;;;;;;4.90;3.78;;;25.10;80.10;;;;;;4049521;29;20165;-62
2022/08/15 01:22:56;;;;;;;4.07;3.67;;;25.10;78.40;;;;;;4051860;29;20449;-62
2022/08/15 01:25:06;;;;;;;6.20;4.25;;;25.10;78.70;;;;;;4043452;29;20043;-61
2022/08/15 01:27:10;;;;;;;4.38;3.75;;;25.00;78.20;;;;;;4048407;29;20043;-62
2022/08/15 01:29:13;;;;;;;4.10;3.63;;;25.10;78.00;;;;;;4047503;29;20041;-65
2022/08/15 01:31:17;;;;;;;4.65;3.60;;;25.10;77.50;;;;;;4032246;29;20470;-63
2022/08/15 01:33:19;;;;;;;3.78;3.00;;;25.10;77.20;;;;;;4049567;29;20032;-62
2022/08/15 01:35:20;;;;;;;4.40;3.58;;;25.10;78.00;;;;;;4046763;29;20044;-62
2022/08/15 01:37:22;;;;;;;4.30;3.28;;;25.10;78.50;;;;;;4048583;29;20021;-64
2022/08/15 01:39:37;;;;;;;4.47;3.50;;;25.10;76.30;;;;;;4048881;29;20044;-61
2022/08/15 01:41:46;;;;;;;5.35;3.60;;;25.00;76.40;;;;;;4040566;29;20044;-62
2022/08/15 01:43:58;;;;;;;3.60;3.28;;;25.10;76.20;;;;;;4055054;29;20068;-62
2022/08/15 01:46:04;;;;;;;3.67;3.00;;;25.10;76.20;;;;;;4048382;29;20368;-62
2022/08/15 01:48:19;;;;;;;3.30;3.00;;;25.10;78.50;;;;;;4049750;29;20041;-61
2022/08/15 01:50:35;;;;;;;3.72;3.38;;;25.10;76.40;;;;;;4063338;29;20036;-61
2022/08/15 01:53:02;;;;;;;6.35;3.45;;;25.10;75.00;;;;;;4047419;29;20043;-62
2022/08/15 01:55:05;;;;;;;3.75;3.28;;;25.10;75.60;;;;;;4061578;29;20099;-62
2022/08/15 01:57:05;;;;;;;7.00;3.10;;;25.10;74.30;;;;;;4064348;29;20035;-61
2022/08/15 01:59:11;;;;;;;3.35;2.83;;;25.00;74.10;;;;;;4065438;29;20033;-62
2022/08/15 02:01:17;;;;;;;3.85;3.05;;;25.00;73.70;;;;;;4060763;29;20119;-63
2022/08/15 02:03:18;;;;;;;4.28;2.70;;;25.10;74.10;;;;;;4065061;29;20483;-61
2022/08/15 02:05:19;;;;;;;3.65;2.85;;;25.00;74.40;;;;;;4063441;29;20032;-62
2022/08/15 02:07:25;;;;;;;3.80;2.83;;;25.10;74.70;;;;;;4047823;29;20052;-61
2022/08/15 02:09:27;;;;;;;3.20;2.83;;;25.10;74.50;;;;;;4065312;29;20032;-61
2022/08/15 02:11:29;;;;;;;3.63;2.70;;;25.00;73.60;;;;;;4063986;29;20120;-62
2022/08/15 02:13:30;;;;;;;4.15;2.60;;;25.00;73.00;;;;;;4065169;29;20032;-62
2022/08/15 02:15:31;;;;;;;3.78;2.88;;;25.00;73.20;;;;;;4063827;29;20776;-62
2022/08/15 02:17:31;;;;;;;5.47;2.72;;;25.00;72.70;;;;;;4065349;29;20190;-61
2022/08/15 02:19:32;;;;;;;3.10;2.58;;;25.00;73.00;;;;;;4065058;29;20072;-62
2022/08/15 02:21:34;;;;;;;3.65;2.75;;;25.00;72.10;;;;;;4063774;29;20048;-62
2022/08/15 02:23:35;;;;;;;3.22;2.45;;;25.00;72.60;;;;;;4065164;29;20047;-62
2022/08/15 02:25:36;;;;;;;3.55;2.50;;;25.00;73.60;;;;;;4056940;29;20036;-62
2022/08/15 02:27:39;;;;;;;3.28;2.53;;;25.10;73.10;;;;;;4064959;29;20029;-62
2022/08/15 02:29:42;;;;;;;6.03;2.92;;;25.00;74.40;;;;;;4065231;29;20119;-62
2022/08/15 02:31:43;;;;;;;3.35;2.33;;;25.00;72.20;;;;;;4063477;29;20428;-62
2022/08/15 02:33:50;;;;;;;3.90;2.20;;;25.00;72.30;;;;;;4065182;29;20040;-62
2022/08/15 02:35:51;;;;;;;4.00;2.10;;;24.90;71.70;;;;;;4063663;29;20067;-62
2022/08/15 02:37:51;;;;;;;3.72;2.20;;;24.90;71.50;;;;;;4065029;29;20032;-62
2022/08/15 02:39:53;;;;;;;3.22;2.20;;;24.90;72.10;;;;;;4065042;29;20387;-62
2022/08/15 02:41:54;;;;;;;3.75;2.25;;;24.90;72.00;;;;;;4063006;29;20036;-62
2022/08/15 02:43:54;;;;;;;3.35;2.55;;;24.90;72.90;;;;;;4064097;29;20086;-62
2022/08/15 02:45:59;;;;;;;3.65;2.10;;;24.90;72.20;;;;;;4064275;29;20074;-62
2022/08/15 02:48:00;;;;;;;4.18;2.67;;;24.90;73.00;;;;;;4064859;29;20091;-62
2022/08/15 02:50:01;;;;;;;3.28;2.35;;;24.90;71.80;;;;;;4064025;29;20543;-62
2022/08/15 02:52:03;;;;;;;3.75;2.10;;;24.80;71.80;;;;;;4063346;29;20083;-61
2022/08/15 02:54:05;;;;;;;2.45;2.17;;;24.80;71.80;;;;;;4063712;29;20052;-62
2022/08/15 02:56:06;;;;;;;6.35;2.40;;;24.80;71.80;;;;;;4063294;29;20547;-62
2022/08/15 02:58:09;;;;;;;3.33;2.35;;;24.70;71.50;;;;;;4064747;29;20028;-62
2022/08/15 03:00:15;;;;;;;4.10;2.35;;;24.70;71.50;;;;;;4063633;29;20043;-62
2022/08/15 03:02:16;;;;;;;2.17;1.80;;;24.70;72.50;;;;;;4064098;29;20070;-62
2022/08/15 03:04:19;;;;;;;3.67;2.22;;;24.70;72.30;;;;;;4059810;29;20530;-62
2022/08/15 03:06:24;;;;;;;3.85;2.35;;;24.70;72.60;;;;;;4063684;29;20040;-61
2022/08/15 03:08:25;;;;;;;4.68;2.20;;;24.70;73.60;;;;;;4062922;29;20127;-62
2022/08/15 03:10:26;;;;;;;3.67;2.30;;;24.70;73.10;;;;;;4063954;29;20039;-62
2022/08/15 03:12:27;;;;;;;4.35;2.00;;;24.80;74.00;;;;;;4064342;29;20067;-62
2022/08/15 03:14:28;;;;;;;3.47;2.08;;;24.70;74.10;;;;;;4054941;29;20040;-62
2022/08/15 03:16:30;;;;;;;3.22;1.83;;;24.70;72.80;;;;;;4063884;29;20112;-62
2022/08/15 03:18:33;;;;;;;3.15;2.10;;;24.70;74.20;;;;;;4063624;29;20115;-61
2022/08/15 03:20:35;;;;;;;2.90;2.10;;;24.60;74.60;;;;;;4064122;29;20075;-62
2022/08/15 03:22:41;;;;;;;4.33;1.90;;;24.60;73.40;;;;;;4064009;29;20032;-63
2022/08/15 03:24:42;;;;;;;8.48;2.60;;;24.60;72.50;;;;;;4063702;29;20032;-62
2022/08/15 03:26:45;;;;;;;4.45;2.00;;;24.50;72.20;;;;;;4063954;29;20032;-62
2022/08/15 03:28:46;;;;;;;3.25;2.20;;;24.40;73.60;;;;;;4064925;29;20063;-62
2022/08/15 03:30:47;;;;;;;3.92;1.90;;;24.30;72.70;;;;;;4063787;29;20032;-62
2022/08/15 03:32:51;;;;;;;3.58;2.00;;;24.30;73.60;;;;;;4063877;29;20353;-62
2022/08/15 03:34:51;;;;;;;3.80;2.00;;;24.30;73.10;;;;;;4063482;29;20036;-62
2022/08/15 03:36:52;;;;;;;2.78;1.90;;;24.30;74.60;;;;;;4063933;29;20031;-62
2022/08/15 03:38:53;;;;;;;3.60;2.17;;;24.30;73.60;;;;;;4064271;29;20487;-62
2022/08/15 03:40:54;;;;;;;4.05;2.45;;;24.30;74.30;;;;;;4063527;29;20034;-62
2022/08/15 03:43:07;;;;;;;3.20;1.90;;;24.30;74.30;;;;;;4064039;29;20167;-62
2022/08/15 03:45:11;;;;;;;4.95;2.03;;;24.30;74.20;;;;;;4062431;29;20119;-63
2022/08/15 03:47:11;;;;;;;2.92;2.10;;;24.30;77.90;;;;;;4064399;29;20067;-62
2022/08/15 03:49:13;;;;;;;3.97;2.03;;;24.30;76.00;;;;;;4064571;29;20036;-62
2022/08/15 03:51:16;;;;;;;3.60;1.90;;;24.30;75.40;;;;;;4062903;29;20036;-62
2022/08/15 03:53:17;;;;;;;;;;;24.20;75.90;;;;;;4064849;29;20040;-61
2022/08/15 03:55:18;;;;;;;2.88;1.88;;;24.20;75.30;;;;;;4062839;29;20434;-62
2022/08/15 03:57:19;;;;;;;3.60;2.22;;;24.20;76.10;;;;;;4064131;29;20491;-62
2022/08/15 03:59:20;;;;;;;2.33;1.60;;;24.20;75.00;;;;;;4063959;29;20020;-61
2022/08/15 04:01:23;;;;;;;2.63;2.13;;;24.20;74.10;;;;;;4062172;29;20068;-62
2022/08/15 04:03:28;;;;;;;2.53;1.73;;;24.20;75.30;;;;;;4063396;29;20039;-62
2022/08/15 04:05:30;;;;;;;2.28;2.00;;;24.20;75.00;;;;;;4061301;29;20387;-62
2022/08/15 04:07:33;;;;;;;2.80;1.88;;;24.20;74.70;;;;;;4060599;29;20103;-62
2022/08/15 04:09:34;;;;;;;5.93;2.10;;;24.20;74.90;;;;;;4066259;29;20043;-62
2022/08/15 04:11:34;;;;;;;2.75;2.13;;;24.20;76.60;;;;;;4065519;29;20512;-61
2022/08/15 04:13:36;;;;;;;4.43;2.00;;;24.10;74.60;;;;;;4064939;29;20043;-62
2022/08/15 04:15:38;;;;;;;3.63;1.90;;;24.10;75.50;;;;;;4064001;29;20036;-62
2022/08/15 04:17:38;;;;;;;2.15;1.85;;;24.10;76.50;;;;;;4066809;29;20047;-61
2022/08/15 04:19:39;;;;;;;4.30;2.00;;;24.10;77.10;;;;;;4065850;29;20040;-61
2022/08/15 04:21:40;;;;;;;3.42;1.77;;;24.10;76.50;;;;;;4068766;29;20040;-62
2022/08/15 04:23:43;;;;;;;4.07;2.03;;;24.20;77.00;;;;;;4067484;29;20123;-62
2022/08/15 04:25:44;;;;;;;1.63;1.33;;;24.10;76.80;;;;;;4066042;29;20031;-61
2022/08/15 04:27:47;;;;;;;2.30;2.10;;;24.10;78.80;;;;;;4067487;29;20518;-61
2022/08/15 04:29:47;;;;;;;4.65;1.80;;;24.10;79.20;;;;;;4070846;29;20043;-62
2022/08/15 04:31:48;;;;;;;2.83;2.08;;;24.10;77.80;;;;;;4065861;29;20039;-62
2022/08/15 04:33:49;;;;;;;3.20;1.80;;;24.10;77.60;;;;;;4072606;29;20771;-62
2022/08/15 04:35:59;;;;;;;5.35;2.30;;;24.10;78.10;;;;;;4065069;29;20054;-62
2022/08/15 04:38:00;;;;;;;4.05;2.00;;;24.10;77.50;;;;;;4066127;29;20176;-62
2022/08/15 04:40:00;;;;;;;2.13;1.92;;;24.20;78.30;;;;;;4067635;29;20380;-62
2022/08/15 04:42:01;;;;;;;3.08;1.90;;;24.10;76.50;;;;;;4065967;29;20044;-62
2022/08/15 04:44:06;;;;;;;5.07;1.77;;;24.10;77.90;;;;;;4066564;29;20377;-62
2022/08/15 04:46:07;;;;;;;2.78;1.90;;;24.20;77.60;;;;;;4066173;29;20044;-61
2022/08/15 04:48:09;;;;;;;3.55;1.73;;;24.20;78.40;;;;;;4069967;29;20144;-61
2022/08/15 04:50:10;;;;;;;3.03;1.85;;;24.20;77.70;;;;;;4066339;29;20050;-62
2022/08/15 04:52:20;;;;;;;4.22;2.10;;;24.10;77.30;;;;;;4065690;29;20060;-62
2022/08/15 04:54:22;;;;;;;5.72;2.50;;;24.10;78.60;;;;;;4066371;29;20034;-61
2022/08/15 04:56:22;;;;;;;4.47;2.27;;;24.10;77.90;;;;;;4065075;29;20087;-62
2022/08/15 04:58:23;;;;;;;3.65;2.05;;;24.10;77.80;;;;;;4069878;29;20044;-64
2022/08/15 05:00:27;;;;;;;4.15;2.30;;;24.10;77.30;;;;;;4066383;29;20032;-64
2022/08/15 05:02:27;;;;;;;3.60;1.98;;;24.00;78.00;;;;;;4069722;29;20475;-64
2022/08/15 05:04:28;;;;;;;4.38;2.25;;;24.00;77.80;;;;;;4066322;29;20063;-64
2022/08/15 05:06:28;;;;;;;4.72;1.60;;;24.00;78.30;;;;;;4064419;29;20033;-64
2022/08/15 05:08:31;;;;;;;3.53;1.90;;;24.00;78.10;;;;;;4064933;29;20424;-64
2022/08/15 05:10:32;;;;;;;3.83;2.00;;;24.10;79.40;;;;;;4065262;29;20528;-64
2022/08/15 05:12:35;;;;;;;2.90;2.00;;;24.00;77.50;;;;;;4065695;29;20036;-64
2022/08/15 05:14:36;;;;;;;2.88;1.70;;;24.00;78.50;;;;;;4063976;29;20047;-64
2022/08/15 05:16:37;;;;;;;3.47;1.83;;;23.90;77.30;;;;;;4064779;29;20036;-65
2022/08/15 05:18:39;;;;;;;4.07;1.90;;;24.00;79.70;;;;;;4066708;29;20028;-64
2022/08/15 05:20:41;;;;;;;2.75;1.40;;;24.10;78.90;;;;;;4065453;29;20406;-64
2022/08/15 05:22:55;;;;;;;10.10;2.20;;;24.00;78.70;;;;;;4064417;29;20111;-64
2022/08/15 05:24:57;;;;;;;3.03;1.98;;;24.00;78.60;;;;;;4048813;29;20040;-64
2022/08/15 05:26:57;;;;;;;2.40;1.83;;;24.00;79.50;;;;;;4063921;29;20115;-64
2022/08/15 05:28:59;;;;;;;3.45;1.48;;;24.00;80.20;;;;;;4065554;29;20036;-65
2022/08/15 05:31:02;;;;;;;3.17;2.05;;;24.00;79.00;;;;;;4065259;29;20028;-64
2022/08/15 05:33:13;;;;;;;3.10;2.22;;;24.00;81.00;;;;;;4065454;29;20411;-64
2022/08/15 05:35:14;;;;;;;3.90;1.90;;;24.00;79.50;;;;;;4064368;29;20039;-64
2022/08/15 05:37:17;;;;;;;4.20;2.10;;;23.90;79.00;;;;;;4066875;29;20070;-64
2022/08/15 05:39:27;;;;;;;2.67;1.77;;;23.90;80.20;;;;;;4065982;29;20028;-65
2022/08/15 05:41:42;;;;;;;3.53;1.98;;;23.90;79.00;;;;;;4063265;29;20126;-65
2022/08/15 05:44:03;;;;;;;4.95;2.10;;;23.80;79.90;;;;;;4066172;29;20044;-65
2022/08/15 05:46:10;;;;;;;2.75;1.83;;;23.80;80.50;;;;;;4060123;29;20548;-65
2022/08/15 05:48:20;;;;;;;6.32;2.00;;;23.70;80.40;;;;;;4061695;29;20036;-65
2022/08/15 05:50:31;;;;;;;4.05;1.98;;;23.70;81.20;;;;;;4061133;29;20467;-65
2022/08/15 05:52:34;;;;;;;7.63;2.05;;;23.70;80.90;;;;;;4059324;29;20047;-65
2022/08/15 05:55:12;;;;;;;2.22;1.95;;;23.70;81.80;;;;;;4062258;29;20048;-65
2022/08/15 05:57:19;;;;;;;7.32;2.42;;;23.70;81.60;;;;;;4062175;29;20044;-64
2022/08/15 05:59:35;;;;;;;3.13;1.80;;;23.70;82.40;;;;;;4061758;29;20040;-64
2022/08/15 06:01:44;;;;;;;2.22;1.60;;;23.70;83.70;;;;;;4058161;29;20145;-64
2022/08/15 06:03:58;;;;;;;2.90;1.85;;;23.70;82.10;;;;;;4060076;29;20055;-65
2022/08/15 06:06:11;;;;;;;3.65;1.88;;;23.70;82.60;;;;;;4060657;29;20766;-65
2022/08/15 06:08:17;;;;;;;4.25;1.50;;;23.70;82.30;;;;;;4060802;29;20078;-67
2022/08/15 06:10:28;;;;;;;3.65;2.03;;;23.70;82.10;;;;;;4059218;29;20443;-67
2022/08/15 06:12:34;;;;;;;2.88;1.70;;;23.80;81.80;;;;;;4061465;29;20055;-66
2022/08/15 06:14:39;;;;;;;3.90;1.55;;;23.80;81.60;;;;;;4056454;29;20040;-66
2022/08/15 06:16:47;;;;;;;2.42;1.70;;;23.80;82.00;;;;;;4057435;29;20131;-66
2022/08/15 06:18:48;;;;;;;4.20;2.10;;;23.80;82.00;;;;;;4061376;29;20044;-66
2022/08/15 06:21:06;;;;;;;1.88;1.40;;;23.80;82.40;;;;;;4052669;29;20103;-66
2022/08/15 06:23:24;;;;;;;4.03;1.60;;;23.90;82.50;;;;;;4061222;29;20064;-66
2022/08/15 06:25:44;;;;;;;2.42;1.67;;;23.90;81.30;;;;;;4059597;29;21841;-65
2022/08/15 06:28:09;;;;;;;2.35;1.63;;;23.90;81.90;;;;;;4061470;29;20028;-66
2022/08/15 06:30:26;;;;;;;3.40;1.77;;;24.00;81.80;;;;;;4060611;29;20039;-69
2022/08/15 06:32:53;;;;;;;3.42;1.58;;;24.00;81.70;;;;;;4062014;29;20050;-66
2022/08/15 06:35:37;;;;;;;2.22;1.65;;;24.00;81.20;;;;;;4060360;29;20131;-67
2022/08/15 06:37:48;;;;;;;3.83;1.70;;;24.10;82.30;;;;;;4061573;29;20055;-68
2022/08/15 06:40:23;;;;;;;5.43;2.05;;;24.10;82.80;;;;;;4060384;29;20036;-66
2022/08/15 06:42:39;;;;;;;2.97;1.80;;;24.10;81.70;;;;;;4059713;29;20125;-66
2022/08/15 06:44:42;;;;;;;5.10;1.70;;;24.20;81.60;;;;;;4059168;29;20495;-66
2022/08/15 06:46:42;;;;;;;3.20;1.40;;;24.20;82.00;;;;;;4060105;29;20335;-66
2022/08/15 06:48:43;;;;;;;4.18;2.00;;;24.30;82.00;;;;;;4062292;29;20028;-66
2022/08/15 06:50:54;;;;;;;5.15;1.92;;;24.20;81.60;;;;;;4060446;29;20052;-66
2022/08/15 06:53:14;;;;;;;2.75;1.80;;;24.20;81.80;;;;;;4047722;29;20042;-66
2022/08/15 06:55:15;;;;;;;3.97;1.98;;;24.20;82.10;;;;;;4060038;29;20043;-67
2022/08/15 06:57:22;;;;;;;3.30;1.60;;;24.30;82.50;;;;;;4061484;29;20499;-66
2022/08/15 06:59:38;;;;;;;3.22;1.90;;;24.30;82.10;;;;;;4058739;29;20575;-66
2022/08/15 07:01:51;;;;;;;4.30;2.05;;;24.30;81.90;;;;;;4058537;29;20067;-67
2022/08/15 07:04:05;;;;;;;3.28;1.67;;;24.30;82.30;;;;;;4058808;29;20885;-68
2022/08/15 07:06:10;;;;;;;4.85;2.08;;;24.30;82.30;;;;;;4057918;29;20346;-66
2022/08/15 07:08:14;;;;;;;3.97;1.77;;;24.30;83.80;;;;;;4060619;29;20119;-67
2022/08/15 07:10:23;;;;;;;4.47;2.03;;;24.40;83.90;;;;;;4061368;29;20649;-67
2022/08/15 07:12:38;;;;;;;3.05;2.00;;;24.40;83.20;;;;;;4059979;29;20024;-67
2022/08/15 07:15:15;;;;;;;7.40;2.05;;;24.40;83.20;;;;;;4060357;29;20139;-67
2022/08/15 07:17:40;;;;;;;3.63;1.90;;;24.50;85.60;;;;;;4051745;29;20391;-66
2022/08/15 07:19:41;;;;;;;2.28;1.60;;;24.50;84.50;;;;;;4061982;29;20036;-66
2022/08/15 07:21:41;;;;;;;3.97;2.08;;;24.50;83.90;;;;;;4059620;29;20051;-66
2022/08/15 07:24:04;;;;;;;3.88;1.95;;;24.60;83.60;;;;;;4059619;29;20044;-67
2022/08/15 07:26:10;;;;;;;3.25;1.67;;;24.50;83.50;;;;;;4060030;29;20877;-66
2022/08/15 07:28:13;;;;;;;4.70;2.10;;;24.60;83.70;;;;;;4061399;29;20032;-66
2022/08/15 07:30:18;;;;;;;2.00;1.75;;;24.60;83.50;;;;;;4060662;29;20600;-67
2022/08/15 07:32:25;;;;;;;2.92;1.60;;;24.50;84.00;;;;;;4059471;29;20080;-66
2022/08/15 07:34:26;;;;;;;3.20;1.80;;;24.50;84.60;;;;;;4059063;29;20039;-66
2022/08/15 07:36:30;;;;;;;3.25;2.08;;;24.60;85.00;;;;;;4060296;29;20033;-66
2022/08/15 07:38:32;;;;;;;4.22;1.95;;;24.60;84.70;;;;;;4061168;29;20620;-66
2022/08/15 07:40:42;;;;;;;3.00;1.98;;;24.60;83.50;;;;;;4059690;29;20028;-66
2022/08/15 07:42:44;;;;;;;4.53;1.90;;;24.50;84.10;;;;;;4059975;29;20048;-66
2022/08/15 07:44:59;;;;;;;5.25;2.38;;;24.50;85.40;;;;;;4061935;29;20468;-67
2022/08/15 07:47:07;;;;;;;3.47;2.20;;;24.50;84.50;;;;;;4061933;29;20042;-66
2022/08/15 07:49:18;;;;;;;5.85;2.20;;;24.50;84.20;;;;;;4064722;29;20270;-66
2022/08/15 07:51:28;;;;;;;3.78;2.20;;;24.40;83.70;;;;;;4062466;29;20043;-66
2022/08/15 07:53:30;;;;;;;4.28;2.20;;;24.40;84.10;;;;;;4047498;29;20044;-67
2022/08/15 07:55:31;;;;;;;3.35;1.75;;;24.40;84.90;;;;;;4061916;29;20119;-67
2022/08/15 07:57:35;;;;;;;3.20;1.88;;;24.40;84.70;;;;;;4063662;29;20084;-66
2022/08/15 07:59:37;;;;;;;3.75;1.88;;;24.40;86.00;;;;;;4062216;29;20035;-66
2022/08/15 08:01:37;;;;;;;5.40;2.30;;;24.50;85.90;;;;;;4061394;29;20064;-66
2022/08/15 08:03:42;;;;;;;5.78;2.33;;;24.50;86.10;;;;;;4062998;29;20067;-66
2022/08/15 08:05:47;;;;;;;3.20;1.92;;;24.40;84.80;;;;;;4061873;29;20066;-66
2022/08/15 08:07:50;;;;;;;3.80;1.90;;;24.40;85.20;;;;;;4062721;29;20056;-67
2022/08/15 08:09:59;;;;;;;3.65;1.88;;;24.50;85.50;;;;;;4064126;29;20044;-66
2022/08/15 08:12:15;;;;;;;3.00;2.10;;;24.50;86.50;;;;;;4063938;29;20048;-66
2022/08/15 08:14:28;;;;;;;3.72;1.90;;;24.50;85.30;;;;;;4063512;29;20045;-66
2022/08/15 08:16:49;;;;;;;6.03;2.28;;;24.50;85.90;;;;;;4063341;29;20539;-66
2022/08/15 08:19:10;;;;;;;2.45;1.33;;;24.60;87.70;;;;;;4064728;29;20168;-66
2022/08/15 08:21:17;;;;;;;2.95;1.83;;;24.70;87.50;;;;;;4063400;29;20052;-67
2022/08/15 08:23:32;;;;;;;2.60;1.60;;;24.70;87.60;;;;;;4063752;29;20036;-66
2022/08/15 08:26:01;;;;;;;5.03;2.17;;;24.70;86.10;;;;;;4056493;29;20047;-66
2022/08/15 08:28:17;;;;;;;9.05;2.42;;;24.70;86.10;;;;;;4065264;29;20055;-67
2022/08/15 08:30:22;;;;;;;4.72;2.10;;;24.80;86.60;;;;;;4063531;29;20036;-66
2022/08/15 08:32:27;;;;;;;3.45;1.70;;;24.80;86.40;;;;;;4062808;29;20032;-66
2022/08/15 08:34:55;;;;;;;3.72;1.75;;;24.80;85.90;;;;;;4048688;29;20051;-66
2022/08/15 08:37:09;;;;;;;4.10;1.95;;;24.90;86.10;;;;;;4062713;29;20044;-66
2022/08/15 08:39:36;;;;;;;3.42;1.90;;;24.90;85.00;;;;;;4065360;29;20042;-66
2022/08/15 08:42:06;;;;;;;7.25;2.72;;;25.00;86.60;;;;;;4064447;29;20473;-66
2022/08/15 08:44:18;;;;;;;6.43;2.53;;;25.00;86.20;;;;;;4064529;29;20035;-66
2022/08/15 08:46:45;;;;;;;2.67;1.92;;;25.10;86.10;;;;;;4065635;29;20539;-66
2022/08/15 08:49:22;;;;;;;6.32;1.95;;;25.10;87.00;;;;;;4064695;29;20040;-66
2022/08/15 08:51:57;;;;;;;3.10;2.00;;;25.20;86.40;;;;;;4061799;29;20369;-66
2022/08/15 08:54:05;;;;;;;4.00;1.85;;;25.20;85.40;;;;;;4062905;29;20040;-67
2022/08/15 08:56:16;;;;;;;9.02;2.35;;;25.30;86.10;;;;;;4062961;29;20032;-67
2022/08/15 08:58:24;;;;;;;4.10;2.13;;;25.20;86.90;;;;;;4076800;29;20031;-67
2022/08/15 09:00:33;;;;;;;5.03;2.33;;;25.30;85.90;;;;;;4060240;29;20512;-67
2022/08/15 09:03:02;;;;;;;4.15;2.28;;;25.30;85.30;;;;;;4064799;29;20448;-67
2022/08/15 09:05:17;;;;;;;2.50;2.03;;;25.30;86.10;;;;;;4065272;29;20115;-67
2022/08/15 09:07:28;;;;;;;4.80;2.22;;;25.30;85.20;;;;;;4064089;29;20048;-67
2022/08/15 09:09:39;;;;;;;4.40;2.03;;;25.40;84.80;;;;;;4066349;29;20094;-66
2022/08/15 09:11:51;;;;;;;4.10;2.15;;;25.30;85.10;;;;;;4063360;29;20043;-66
2022/08/15 09:13:54;;;;;;;4.40;2.23;;;25.30;84.50;;;;;;4061403;29;20047;-67
2022/08/15 09:15:58;;;;;;;4.80;2.00;;;25.30;85.30;;;;;;4062329;29;20036;-67
2022/08/15 09:18:05;;;;;;;8.00;2.72;;;25.40;85.70;;;;;;4064978;29;20098;-67
2022/08/15 09:20:22;;;;;;;6.80;2.25;;;25.40;85.00;;;;;;4064629;29;20551;-67
2022/08/15 09:22:24;;;;;;;5.22;2.25;;;25.40;85.30;;;;;;4046226;29;20584;-67
2022/08/15 09:24:24;;;;;;;3.00;2.03;;;25.40;85.10;;;;;;4063972;29;20036;-68
2022/08/15 09:26:33;;;;;;;3.97;1.95;;;25.40;86.00;;;;;;4064246;29;20284;-68
2022/08/15 09:28:37;;;;;;;5.45;2.17;;;25.40;85.50;;;;;;4063949;29;20487;-66
2022/08/15 09:30:40;;;;;;;4.88;2.30;;;25.40;86.70;;;;;;4062088;29;20567;-66
2022/08/15 09:33:15;;;;;;;2.70;2.05;;;25.50;86.10;;;;;;4056153;29;20047;-66
2022/08/15 09:35:45;;;;;;;6.90;2.47;;;25.50;86.80;;;;;;4058906;29;20115;-65
2022/08/15 09:38:00;;;;;;;5.30;2.50;;;25.50;86.20;;;;;;4060852;29;20032;-67
2022/08/15 09:40:15;;;;;;;6.05;2.35;;;25.50;85.70;;;;;;4061349;29;20044;-66
2022/08/15 09:42:43;;;;;;;3.17;2.30;;;25.50;85.20;;;;;;4062096;29;20959;-67
2022/08/15 09:45:19;;;;;;;7.13;2.83;;;25.50;84.90;;;;;;4047371;29;20061;-66
2022/08/15 09:47:45;;;;;;;6.25;2.58;;;25.40;86.60;;;;;;4044445;29;20037;-66
2022/08/15 09:49:57;;;;;;;3.88;2.03;;;25.30;85.90;;;;;;4048000;29;21205;-66
2022/08/15 09:52:06;;;;;;;4.25;2.40;;;25.30;86.20;;;;;;4059838;29;20127;-66
2022/08/15 09:54:20;;;;;;;5.97;2.35;;;25.40;86.30;;;;;;4048679;29;20037;-67
2022/08/15 09:56:25;;;;;;;8.30;2.50;;;25.40;86.30;;;;;;4047056;29;20055;-67
2022/08/15 09:58:29;;;;;;;5.05;2.00;;;25.40;87.40;;;;;;4059445;29;20047;-66
2022/08/15 10:00:55;;;;;;;5.05;2.40;;;25.30;87.00;;;;;;4060581;29;20047;-67
2022/08/15 10:03:05;;;;;;;5.30;2.20;;;25.40;86.60;;;;;;4046664;29;20568;-67
2022/08/15 10:05:26;;;;;;;4.80;2.50;;;25.40;87.30;;;;;;4047319;29;20066;-67
2022/08/15 10:07:38;;;;;;;4.15;2.25;;;25.40;86.50;;;;;;4047344;29;20049;-67
2022/08/15 10:09:58;;;;;;;7.82;2.90;;;25.40;86.30;;;;;;4050487;29;20067;-67
2022/08/15 10:12:08;;;;;;;3.33;2.20;;;25.30;86.60;;;;;;4048427;29;20045;-66
2022/08/15 10:14:25;;;;;;;7.88;2.70;;;25.40;87.70;;;;;;4047986;29;20092;-66
2022/08/15 10:16:41;;;;;;;5.43;2.85;;;25.30;87.20;;;;;;4046104;29;20180;-67
2022/08/15 10:18:51;;;;;;;3.97;2.20;;;25.30;87.60;;;;;;4044149;29;20572;-67
2022/08/15 10:21:00;;;;;;;6.28;2.70;;;25.30;87.00;;;;;;4058205;29;20077;-67
2022/08/15 10:23:01;;;;;;;5.47;2.35;;;25.30;86.90;;;;;;4064142;29;20156;-65
2022/08/15 10:25:17;;;;;;;6.60;2.42;;;25.30;87.40;;;;;;4063116;29;20131;-66
2022/08/15 10:27:22;;;;;;;4.63;2.63;;;25.30;88.00;;;;;;4046382;29;20516;-66
2022/08/15 10:29:32;;;;;;;6.78;2.88;;;25.20;88.30;;;;;;4062456;29;20048;-67
2022/08/15 10:31:54;;;;;;;6.43;2.47;;;25.30;87.70;;;;;;4062417;29;20514;-66
2022/08/15 10:33:59;;;;;;;5.35;2.60;;;25.20;87.50;;;;;;4044241;29;20492;-66
2022/08/15 10:36:13;;;;;;;5.15;2.38;;;25.30;87.60;;;;;;4046493;29;20063;-66
2022/08/15 10:38:24;;;;;;;4.55;2.90;;;25.30;88.50;;;;;;4046047;29;20032;-66
2022/08/15 10:40:37;;;;;;;5.05;2.58;;;25.30;89.10;;;;;;4046535;29;20036;-67
2022/08/15 10:42:56;;;;;;;4.28;2.50;;;25.40;87.90;;;;;;4059841;29;20484;-67
2022/08/15 10:45:21;;;;;;;3.50;2.35;;;25.30;88.10;;;;;;4061740;29;20036;-66
2022/08/15 10:47:56;;;;;;;6.63;2.90;;;25.50;88.30;;;;;;4061948;29;20063;-67
2022/08/15 10:50:14;;;;;;;3.80;2.33;;;25.50;88.90;;;;;;4061088;29;20096;-66
2022/08/15 10:52:27;;;;;;;4.85;2.63;;;25.50;89.90;;;;;;4060207;29;20123;-66
2022/08/15 10:55:08;;;;;;;6.28;2.60;;;25.50;88.30;;;;;;4061656;29;20051;-67
2022/08/15 10:57:13;;;;;;;4.05;2.47;;;25.60;89.10;;;;;;4044531;29;20040;-67
2022/08/15 10:59:19;;;;;;;5.13;2.97;;;25.60;88.90;;;;;;4044594;29;20036;-66
2022/08/15 11:01:27;;;;;;;6.13;3.03;;;25.60;88.10;;;;;;4051297;29;20401;-67
2022/08/15 11:03:38;;;;;;;7.65;3.25;;;25.60;88.70;;;;;;4046360;29;20048;-67
2022/08/15 11:05:39;;;;;;;6.78;3.38;;;25.60;87.60;;;;;;4044633;29;20043;-68
2022/08/15 11:07:47;;;;;;;7.95;3.40;;;25.60;88.30;;;;;;4046992;29;20392;-67
2022/08/15 11:09:59;;;;;;;4.40;2.95;;;25.60;90.10;;;;;;4046169;29;20400;-67